createdAt,value
2018-04-13T00:00:36.542Z,25.77
2018-04-13T00:03:04.847Z,24.90
2018-04-13T00:05:33.130Z,23.10
2018-04-13T00:08:01.439Z,21.83
2018-04-13T00:10:30.475Z,21.57
2018-04-13T00:12:58.783Z,21.33
2018-04-13T00:15:27.063Z,21.57
2018-04-13T00:17:55.352Z,21.70
2018-04-13T00:20:23.643Z,23.53
2018-04-13T00:22:51.949Z,23.43
2018-04-13T00:25:20.250Z,22.50
2018-04-13T00:27:48.540Z,22.93
2018-04-13T00:30:18.353Z,23.57
2018-04-13T00:32:46.666Z,23.00
2018-04-13T00:35:14.943Z,22.90
2018-04-13T00:37:43.240Z,24.17
2018-04-13T00:40:11.499Z,23.90
2018-04-13T00:42:39.812Z,21.10
2018-04-13T00:45:08.089Z,23.30
2018-04-13T00:47:36.415Z,21.20
2018-04-13T00:50:05.481Z,20.20
2018-04-13T00:52:33.755Z,17.87
2018-04-13T00:55:02.031Z,19.40
2018-04-13T00:57:30.347Z,18.30
2018-04-13T00:59:58.632Z,20.70
2018-04-13T01:02:26.926Z,22.63
2018-04-13T01:04:55.255Z,19.83
2018-04-13T01:07:24.338Z,22.07
2018-04-13T01:09:52.616Z,22.63
2018-04-13T01:12:20.919Z,22.83
2018-04-13T01:14:49.312Z,22.60
2018-04-13T01:17:18.493Z,23.60
2018-04-13T01:19:46.843Z,22.60
2018-04-13T01:22:15.181Z,24.60
2018-04-13T01:24:43.480Z,23.67
2018-04-13T01:27:12.598Z,25.77
2018-04-13T01:29:41.193Z,25.40
2018-04-13T01:32:09.453Z,26.33
2018-04-13T01:34:37.718Z,27.77
2018-04-13T01:37:06.040Z,28.73
2018-04-13T01:39:34.332Z,26.67
2018-04-13T01:42:02.603Z,29.80
2018-04-13T01:44:30.892Z,27.33
2018-04-13T01:46:59.225Z,27.73
2018-04-13T01:49:27.463Z,28.07
2018-04-13T01:51:55.778Z,29.60
2018-04-13T01:54:24.067Z,28.27
2018-04-13T01:56:52.365Z,28.90
2018-04-13T01:59:20.725Z,27.37
2018-04-13T02:01:49.153Z,28.30
2018-04-13T02:04:17.475Z,28.00
2018-04-13T02:06:45.769Z,27.50
2018-04-13T02:09:14.071Z,32.63
2018-04-13T02:11:42.379Z,31.73
2018-04-13T02:14:10.686Z,31.03
2018-04-13T02:16:38.987Z,30.93
2018-04-13T02:19:07.350Z,29.90
2018-04-13T02:21:35.668Z,29.97
2018-04-13T02:24:04.727Z,31.30
2018-04-13T02:26:33.003Z,32.27
2018-04-13T02:29:01.295Z,30.67
2018-04-13T02:31:29.606Z,31.00
2018-04-13T02:33:57.872Z,29.80
2018-04-13T02:36:26.155Z,31.07
2018-04-13T02:38:54.452Z,31.30
2018-04-13T02:41:28.699Z,32.57
2018-04-13T02:43:56.983Z,31.40
2018-04-13T02:46:25.253Z,33.37
2018-04-13T02:48:53.527Z,32.20
2018-04-13T02:51:22.585Z,31.27
2018-04-13T02:53:50.897Z,34.00
2018-04-13T02:56:19.204Z,33.13
2018-04-13T02:58:49.166Z,33.30
2018-04-13T03:01:17.457Z,35.97
2018-04-13T03:03:45.790Z,35.33
2018-04-13T03:06:14.104Z,36.83
2018-04-13T03:08:43.141Z,38.90
2018-04-13T03:11:11.429Z,40.33
2018-04-13T03:13:39.832Z,41.70
2018-04-13T03:16:08.121Z,43.03
2018-04-13T03:18:36.443Z,42.97
2018-04-13T03:21:04.730Z,46.13
2018-04-13T03:23:33.036Z,44.97
2018-04-13T03:26:02.103Z,49.53
2018-04-13T03:28:30.371Z,47.90
2018-04-13T03:30:58.676Z,49.10
2018-04-13T03:33:26.975Z,48.33
2018-04-13T03:35:55.259Z,47.67
2018-04-13T03:38:23.537Z,46.87
2018-04-13T03:40:51.861Z,46.20
2018-04-13T03:43:20.239Z,46.67
2018-04-13T03:45:48.582Z,47.43
2018-04-13T03:48:16.994Z,46.47
2018-04-13T03:50:45.305Z,45.67
2018-04-13T03:53:13.591Z,47.83
2018-04-13T03:55:41.918Z,44.50
2018-04-13T03:58:11.719Z,43.20
2018-04-13T04:00:40.811Z,46.47
2018-04-13T04:03:09.202Z,43.10
2018-04-13T04:05:37.499Z,45.33
2018-04-13T04:08:05.819Z,44.50
2018-04-13T04:10:34.859Z,44.83
2018-04-13T04:13:03.192Z,45.20
2018-04-13T04:15:31.484Z,45.57
2018-04-13T04:17:59.762Z,46.30
2018-04-13T04:20:39.774Z,50.20
2018-04-13T04:23:20.629Z,43.17
2018-04-13T04:26:00.932Z,46.70
2018-04-13T04:28:29.203Z,47.73
2018-04-13T04:30:58.260Z,45.03
2018-04-13T04:33:26.539Z,50.60
2018-04-13T04:35:54.828Z,48.93
2018-04-13T04:38:25.656Z,51.03
2018-04-13T04:40:53.956Z,48.87
2018-04-13T04:43:22.401Z,50.67
2018-04-13T04:45:50.783Z,48.77
2018-04-13T04:48:19.065Z,46.70
2018-04-13T04:50:47.387Z,50.63
2018-04-13T04:53:19.072Z,47.97
2018-04-13T04:55:47.400Z,47.93
2018-04-13T04:58:15.738Z,47.77
2018-04-13T05:00:44.861Z,46.20
2018-04-13T05:03:13.903Z,45.67
2018-04-13T05:05:42.207Z,49.73
2018-04-13T05:08:10.527Z,46.60
2018-04-13T05:10:39.608Z,45.23
2018-04-13T05:13:09.426Z,45.47
2018-04-13T05:15:37.719Z,43.83
2018-04-13T05:18:06.039Z,43.83
2018-04-13T05:20:34.299Z,43.73
2018-04-13T05:23:02.596Z,46.60
2018-04-13T05:25:30.970Z,46.03
2018-04-13T05:27:59.259Z,50.60
2018-04-13T05:30:27.547Z,46.87
2018-04-13T05:32:55.819Z,44.13
2018-04-13T05:35:24.167Z,49.30
2018-04-13T05:40:50.550Z,50.13
2018-04-13T05:43:18.852Z,48.60
2018-04-13T05:45:47.118Z,50.63
2018-04-13T05:48:15.437Z,48.87
2018-04-13T06:06:43.227Z,52.47
2018-04-13T06:09:11.544Z,50.67
2018-04-13T06:11:39.845Z,48.53
2018-04-13T06:14:08.134Z,48.33
2018-04-13T06:16:36.472Z,48.43
2018-04-13T06:19:04.756Z,52.30
2018-04-13T06:21:33.791Z,46.63
2018-04-13T06:24:02.064Z,47.73
2018-04-13T06:26:31.227Z,46.50
2018-04-13T06:28:59.518Z,46.87
2018-04-13T06:31:28.564Z,48.70
2018-04-13T06:33:56.943Z,47.40
2018-04-13T06:36:25.222Z,44.50
2018-04-13T06:38:53.524Z,42.13
2018-04-13T06:41:22.568Z,46.93
2018-04-13T06:43:50.853Z,43.23
2018-04-13T06:46:19.155Z,45.70
2018-04-13T06:48:47.488Z,46.37
2018-04-13T06:51:16.483Z,44.77
2018-04-13T06:53:44.751Z,45.97
2018-04-13T06:56:13.047Z,41.40
2018-04-13T06:58:41.325Z,46.30
2018-04-13T07:01:09.618Z,42.70
2018-04-13T07:03:37.913Z,41.67
2018-04-13T07:06:06.292Z,43.53
2018-04-13T07:08:34.668Z,43.80
2018-04-13T07:11:03.742Z,40.07
2018-04-13T07:13:32.068Z,39.83
2018-04-13T07:16:00.355Z,40.30
2018-04-13T07:18:28.799Z,39.47
2018-04-13T07:20:57.094Z,40.10
2018-04-13T07:23:26.135Z,39.70
2018-04-13T07:25:54.428Z,40.67
2018-04-13T07:28:22.732Z,39.23
2018-04-13T07:30:51.775Z,37.30
2018-04-13T07:33:20.059Z,37.40
2018-04-13T07:35:48.363Z,38.37
2018-04-13T07:38:16.652Z,39.70
2018-04-13T07:40:44.934Z,39.20
2018-04-13T07:43:13.995Z,36.47
2018-04-13T07:45:43.040Z,35.97
2018-04-13T07:48:12.096Z,36.23
2018-04-13T07:50:41.621Z,34.43
2018-04-13T07:53:09.579Z,34.90
2018-04-13T07:55:38.407Z,33.80
2018-04-13T07:58:06.715Z,34.80
2018-04-13T08:00:34.993Z,32.77
2018-04-13T08:03:03.368Z,32.60
2018-04-13T08:05:31.668Z,34.43
2018-04-13T08:07:59.971Z,32.13
2018-04-13T08:10:28.265Z,30.57
2018-04-13T08:12:56.987Z,32.20
2018-04-13T08:15:26.082Z,31.30
2018-04-13T08:17:54.076Z,31.30
2018-04-13T08:20:22.468Z,30.47
2018-04-13T08:22:52.263Z,28.67
2018-04-13T08:25:22.064Z,30.33
2018-04-13T08:27:50.347Z,27.83
2018-04-13T08:30:18.647Z,26.50
2018-04-13T08:32:47.005Z,27.47
2018-04-13T08:35:16.064Z,26.57
2018-04-13T08:37:44.364Z,28.23
2018-04-13T08:40:12.635Z,26.03
2018-04-13T08:42:40.988Z,27.20
2018-04-13T08:45:09.260Z,28.23
2018-04-13T08:47:37.555Z,27.33
2018-04-13T08:50:05.853Z,24.90
2018-04-13T08:52:34.282Z,25.63
2018-04-13T08:55:03.359Z,26.23
2018-04-13T08:57:32.491Z,26.30
2018-04-13T09:00:00.751Z,29.03
2018-04-13T09:02:29.056Z,27.77
2018-04-13T09:04:57.331Z,29.17
2018-04-13T09:07:25.613Z,28.50
2018-04-13T09:09:53.924Z,30.10
2018-04-13T09:12:22.187Z,27.77
2018-04-13T09:14:50.463Z,27.17
2018-04-13T09:17:18.741Z,29.70
2018-04-13T09:19:48.521Z,28.20
2018-04-13T09:22:16.835Z,26.57
2018-04-13T09:24:45.890Z,27.23
2018-04-13T09:27:14.172Z,28.10
2018-04-13T09:29:42.472Z,26.53
2018-04-13T09:32:10.771Z,25.77
2018-04-13T09:34:39.823Z,28.33
2018-04-13T09:37:08.114Z,24.87
2018-04-13T09:39:36.409Z,26.27
2018-04-13T09:42:05.471Z,25.83
2018-04-13T09:44:33.760Z,26.60
2018-04-13T09:47:03.539Z,25.50
2018-04-13T09:49:31.827Z,22.50
2018-04-13T09:52:00.152Z,21.40
2018-04-13T09:54:29.190Z,19.67
2018-04-13T09:56:57.501Z,16.57
2018-04-13T09:59:25.783Z,14.07
2018-04-13T10:01:54.871Z,14.20
2018-04-13T10:04:23.123Z,20.27
2018-04-13T10:06:51.423Z,52.30
2018-04-13T10:09:19.722Z,16.23
2018-04-13T10:11:48.903Z,14.60
2018-04-13T10:14:17.271Z,14.73
2018-04-13T10:16:45.553Z,20.03
2018-04-13T10:19:15.368Z,19.07
2018-04-13T10:21:43.639Z,16.80
2018-04-13T10:24:11.920Z,21.33
2018-04-13T10:26:40.213Z,17.50
2018-04-13T10:29:08.529Z,18.33
2018-04-13T10:31:36.806Z,15.23
2018-04-13T10:34:05.079Z,14.60
2018-04-13T10:36:33.376Z,16.13
2018-04-13T10:39:01.658Z,17.83
2018-04-13T10:41:29.984Z,20.33
2018-04-13T10:43:59.035Z,13.00
2018-04-13T10:46:27.323Z,14.23
2018-04-13T10:48:55.735Z,13.40
2018-04-13T10:51:24.786Z,15.23
2018-04-13T10:53:53.276Z,13.10
2018-04-13T10:56:21.588Z,16.13
2018-04-13T10:58:50.759Z,15.23
2018-04-13T11:01:19.023Z,14.47
2018-04-13T11:03:47.334Z,14.03
2018-04-13T11:06:15.635Z,13.63
2018-04-13T11:08:43.916Z,14.40
2018-04-13T11:11:12.211Z,16.57
2018-04-13T11:13:40.522Z,14.77
2018-04-13T11:16:08.799Z,14.63
2018-04-13T11:18:37.864Z,14.80
2018-04-13T11:21:06.163Z,17.67
2018-04-13T11:23:34.459Z,16.83
2018-04-13T11:26:02.787Z,17.17
2018-04-13T11:28:31.116Z,18.93
2018-04-13T11:30:59.428Z,17.87
2018-04-13T11:33:27.830Z,16.63
2018-04-13T11:35:56.095Z,21.70
2018-04-13T11:38:24.387Z,17.70
2018-04-13T11:40:52.684Z,15.30
2018-04-13T11:43:21.047Z,15.93
2018-04-13T11:45:49.363Z,14.23
2018-04-13T11:48:18.440Z,15.73
2018-04-13T11:50:46.715Z,12.73
2018-04-13T11:53:14.987Z,15.53
2018-04-13T11:55:44.179Z,13.63
2018-04-13T11:58:12.451Z,15.77
2018-04-13T12:00:40.750Z,18.13
2018-04-13T12:03:09.046Z,17.90
2018-04-13T12:05:37.352Z,13.10
2018-04-13T12:08:05.639Z,17.10
2018-04-13T12:10:33.945Z,13.20
2018-04-13T12:13:02.211Z,12.63
2018-04-13T12:15:30.516Z,14.80
2018-04-13T12:17:59.597Z,14.30
2018-04-13T12:20:27.896Z,15.93
2018-04-13T12:22:56.209Z,15.77
2018-04-13T12:25:24.508Z,13.27
2018-04-13T12:27:52.787Z,15.03
2018-04-13T12:30:21.068Z,14.63
2018-04-13T12:32:49.352Z,12.73
2018-04-13T12:35:17.631Z,12.60
2018-04-13T12:37:46.720Z,18.00
2018-04-13T12:40:15.756Z,15.97
2018-04-13T12:42:44.099Z,20.23
2018-04-13T12:45:12.396Z,13.77
2018-04-13T12:47:41.419Z,15.50
2018-04-13T12:50:09.707Z,15.07
2018-04-13T12:52:37.999Z,12.53
2018-04-13T12:55:06.504Z,15.30
2018-04-13T12:57:35.372Z,20.37
2018-04-13T13:00:03.665Z,17.37
2018-04-13T13:02:31.968Z,18.07
2018-04-13T13:05:00.268Z,15.40
2018-04-13T13:07:28.562Z,15.93
2018-04-13T13:09:56.863Z,14.10
2018-04-13T13:12:25.949Z,13.67
2018-04-13T13:14:55.765Z,16.00
2018-04-13T13:17:24.827Z,17.97
2018-04-13T13:19:53.117Z,14.73
2018-04-13T13:22:27.440Z,19.53
2018-04-13T13:24:55.748Z,14.53
2018-04-13T13:27:24.827Z,16.70
2018-04-13T13:29:53.891Z,15.13
2018-04-13T13:32:22.199Z,17.73
2018-04-13T13:34:50.459Z,15.90
2018-04-13T13:37:18.753Z,16.70
2018-04-13T13:39:47.224Z,14.07
2018-04-13T13:42:15.514Z,18.47
2018-04-13T13:44:44.577Z,17.27
2018-04-13T13:47:12.874Z,15.40
2018-04-13T13:49:41.164Z,18.50
2018-04-13T13:52:09.479Z,15.13
2018-04-13T13:54:37.809Z,19.73
2018-04-13T13:57:07.612Z,18.20
2018-04-13T13:59:36.009Z,14.47
2018-04-13T14:02:04.375Z,15.60
2018-04-13T14:04:32.759Z,14.63
2018-04-13T14:07:02.066Z,15.10
2018-04-13T14:09:30.397Z,18.50
2018-04-13T14:11:59.408Z,13.87
2018-04-13T14:14:29.244Z,19.97
2018-04-13T14:16:59.036Z,16.27
2018-04-13T14:19:27.316Z,14.10
2018-04-13T14:21:55.638Z,16.00
2018-04-13T14:24:24.199Z,15.67
2018-04-13T14:26:52.492Z,13.20
2018-04-13T14:29:21.555Z,14.60
2018-04-13T14:31:49.876Z,13.97
2018-04-13T14:34:18.216Z,14.47
2018-04-13T14:36:46.524Z,15.73
2018-04-13T14:39:15.585Z,15.80
2018-04-13T14:41:43.903Z,17.27
2018-04-13T14:44:12.211Z,16.17
2018-04-13T14:46:40.495Z,16.03
2018-04-13T14:49:08.828Z,23.00
2018-04-13T14:51:37.871Z,21.80
2018-04-13T14:54:06.198Z,18.93
2018-04-13T14:56:34.485Z,20.03
2018-04-13T14:59:02.767Z,20.63
2018-04-13T15:01:31.056Z,21.23
2018-04-13T15:03:59.340Z,19.50
2018-04-13T15:06:27.895Z,18.53
2018-04-13T15:08:56.926Z,17.13
2018-04-13T15:11:25.216Z,17.97
2018-04-13T15:13:53.471Z,16.33
2018-04-13T15:16:21.751Z,16.57
2018-04-13T15:18:50.066Z,17.77
2018-04-13T15:21:19.128Z,16.73
2018-04-13T15:23:47.520Z,22.50
2018-04-13T15:26:15.816Z,16.10
2018-04-13T15:28:44.869Z,17.57
2018-04-13T15:31:13.175Z,19.73
2018-04-13T15:33:41.471Z,19.17
2018-04-13T15:36:11.686Z,19.93
2018-04-13T15:38:40.747Z,19.43
2018-04-13T15:41:09.035Z,16.23
2018-04-13T15:43:37.307Z,19.43
2018-04-13T15:46:05.591Z,20.60
2018-04-13T15:48:34.659Z,22.17
2018-04-13T15:51:02.944Z,23.10
2018-04-13T15:53:31.226Z,26.73
2018-04-13T15:55:59.503Z,29.27
2018-04-13T15:58:27.805Z,35.93
2018-04-13T16:00:56.121Z,37.10
2018-04-13T16:03:25.142Z,41.63
2018-04-13T16:05:53.444Z,43.10
2018-04-13T16:08:21.808Z,41.40
2018-04-13T16:10:50.090Z,43.53
2018-04-13T16:13:18.384Z,42.13
2018-04-13T16:15:47.565Z,44.40
2018-04-13T16:18:15.843Z,42.97
2018-04-13T16:20:44.115Z,42.83
2018-04-13T16:23:12.411Z,39.60
2018-04-13T16:25:41.448Z,44.20
2018-04-13T16:28:09.755Z,43.83
2018-04-13T16:30:38.023Z,43.80
2018-04-13T16:33:06.319Z,41.80
2018-04-13T16:35:35.398Z,44.17
2018-04-13T16:38:03.692Z,48.60
2018-04-13T16:40:32.003Z,48.57
2018-04-13T16:43:00.332Z,51.60
2018-04-13T16:45:29.439Z,50.10
2018-04-13T16:47:58.528Z,52.00
2018-04-13T16:50:26.822Z,55.13
2018-04-13T16:52:55.093Z,55.70
2018-04-13T16:55:23.357Z,59.97
2018-04-13T16:57:51.683Z,63.50
2018-04-13T17:00:20.743Z,65.77
2018-04-13T17:02:49.025Z,70.33
2018-04-13T17:05:17.304Z,77.37
2018-04-13T17:07:48.014Z,80.73
2018-04-13T17:10:16.300Z,81.10
2018-04-13T17:12:44.606Z,83.50
2018-04-13T17:15:12.895Z,86.33
2018-04-13T17:17:41.176Z,87.07
2018-04-13T17:20:09.501Z,85.60
2018-04-13T17:22:37.795Z,82.70
2018-04-13T17:25:06.069Z,84.77
2018-04-13T17:27:35.129Z,85.97
2018-04-13T17:30:03.444Z,84.30
2018-04-13T17:32:32.479Z,83.90
2018-04-13T17:35:00.772Z,82.27
2018-04-13T17:37:29.084Z,79.10
2018-04-13T17:39:57.347Z,82.67
2018-04-13T17:42:25.733Z,77.70
2018-04-13T17:44:54.100Z,74.67
2018-04-13T17:47:22.392Z,76.33
2018-04-13T17:49:50.679Z,82.53
2018-04-13T17:52:19.844Z,81.43
2018-04-13T17:54:48.121Z,73.50
2018-04-13T17:57:16.431Z,71.07
2018-04-13T17:59:46.190Z,72.40
2018-04-13T18:02:15.041Z,73.23
2018-04-13T18:04:44.102Z,76.37
2018-04-13T18:07:12.389Z,84.80
2018-04-13T18:09:41.443Z,88.10
2018-04-13T18:12:09.748Z,89.83
2018-04-13T18:14:38.027Z,97.80
2018-04-13T18:17:06.318Z,104.40
2018-04-13T18:19:35.363Z,106.67
2018-04-13T18:22:03.739Z,107.43
2018-04-13T18:24:32.063Z,106.27
2018-04-13T18:27:00.348Z,105.30
2018-04-13T18:29:28.664Z,106.07
2018-04-13T18:31:57.676Z,114.57
2018-04-13T18:34:25.956Z,112.77
2018-04-13T18:36:54.256Z,117.97
2018-04-13T18:39:23.361Z,112.20
2018-04-13T18:41:51.616Z,115.77
2018-04-13T18:44:19.929Z,111.43
2018-04-13T18:46:48.207Z,111.57
2018-04-13T18:49:16.506Z,108.60
2018-04-13T18:51:44.846Z,109.83
2018-04-13T18:54:13.115Z,105.90
2018-04-13T18:56:42.184Z,116.60
2018-04-13T18:59:10.491Z,108.10
2018-04-13T19:01:38.803Z,117.63
2018-04-13T19:04:07.092Z,115.50
2018-04-13T19:06:35.420Z,112.30
2018-04-13T19:09:04.171Z,115.90
2018-04-13T19:11:32.468Z,122.90
2018-04-13T19:14:00.779Z,118.43
2018-04-13T19:16:29.094Z,117.37
2018-04-13T19:18:57.430Z,121.27
2018-04-13T19:21:26.499Z,126.03
2018-04-13T19:23:55.568Z,125.80
2018-04-13T19:26:23.874Z,102.80
2018-04-13T19:28:52.156Z,108.97
2018-04-13T19:31:21.227Z,99.27
2018-04-13T19:33:49.524Z,101.47
2018-04-13T19:36:19.473Z,92.97
2018-04-13T19:38:49.298Z,84.47
2018-04-13T19:41:19.201Z,75.20
2018-04-13T19:43:48.984Z,56.20
2018-04-13T19:46:18.843Z,50.23
2018-04-13T19:48:48.669Z,48.50
2018-04-13T19:51:19.034Z,39.17
2018-04-13T19:53:48.881Z,37.50
2018-04-13T19:56:18.727Z,35.30
2018-04-13T19:58:48.563Z,35.90
2018-04-13T20:01:18.354Z,33.77
2018-04-13T20:03:48.226Z,32.77
2018-04-13T20:06:18.034Z,34.60
2018-04-13T20:08:47.886Z,32.87
2018-04-13T20:11:17.682Z,34.10
2018-04-13T20:13:47.506Z,36.57
2018-04-13T20:16:21.218Z,31.60
2018-04-13T20:18:51.032Z,31.43
2018-04-13T20:21:20.835Z,32.23
2018-04-13T20:23:50.662Z,35.13
2018-04-13T20:26:20.479Z,31.60
2018-04-13T20:28:50.291Z,29.10
2018-04-13T20:31:20.103Z,28.50
2018-04-13T20:33:49.939Z,31.23
2018-04-13T20:36:20.488Z,31.03
2018-04-13T20:38:50.303Z,31.00
2018-04-13T20:41:20.120Z,32.50
2018-04-13T20:43:50.546Z,28.57
2018-04-13T20:46:20.523Z,30.40
2018-04-13T20:48:50.311Z,27.07
2018-04-13T20:51:20.123Z,28.40
2018-04-13T20:53:49.940Z,29.50
2018-04-13T20:56:19.779Z,31.27
2018-04-13T20:58:49.574Z,26.67
2018-04-13T21:01:19.400Z,28.57
2018-04-13T21:03:49.237Z,27.60
2018-04-13T21:06:19.052Z,28.23
2018-04-13T21:08:48.865Z,29.80
2018-04-13T21:11:18.702Z,27.83
2018-04-13T21:13:48.565Z,27.13
2018-04-13T21:16:18.374Z,28.80
2018-04-13T21:18:48.192Z,29.73
2018-04-13T21:21:17.997Z,27.23
2018-04-13T21:23:47.823Z,28.87
2018-04-13T21:26:17.632Z,30.97
2018-04-13T21:28:47.539Z,35.40
2018-04-13T21:31:17.337Z,33.47
2018-04-13T21:33:47.171Z,36.33
2018-04-13T21:36:16.967Z,39.60
2018-04-13T21:38:46.797Z,41.10
2018-04-13T21:41:16.625Z,44.10
2018-04-13T21:43:46.504Z,45.33
2018-04-13T21:46:16.326Z,44.80
2018-04-13T21:48:46.141Z,47.00
2018-04-13T21:51:15.942Z,45.40
2018-04-13T21:53:45.769Z,54.27
2018-04-13T21:56:15.580Z,52.47
2018-04-13T21:58:45.387Z,53.53
2018-04-13T22:01:15.196Z,53.87
2018-04-13T22:03:45.007Z,49.37
2018-04-13T22:06:14.827Z,53.70
2018-04-13T22:08:44.655Z,51.67
2018-04-13T22:11:14.471Z,53.90
2018-04-13T22:13:45.207Z,55.97
2018-04-13T22:16:15.018Z,59.50
2018-04-13T22:18:44.819Z,62.33
2018-04-13T22:21:14.635Z,61.37
2018-04-13T22:23:44.456Z,68.87
2018-04-13T22:26:14.239Z,72.87
2018-04-13T22:28:44.067Z,74.37
2018-04-13T22:31:14.078Z,72.90
2018-04-13T22:33:43.884Z,85.57
2018-04-13T22:36:13.703Z,75.70
2018-04-13T22:38:43.533Z,83.07
2018-04-13T22:41:13.319Z,82.30
2018-04-13T22:43:43.127Z,75.33
2018-04-13T22:46:12.948Z,86.77
2018-04-13T22:48:42.856Z,82.57
2018-04-13T22:51:12.658Z,92.70
2018-04-13T22:53:42.479Z,93.27
2018-04-13T22:56:12.291Z,93.53
2018-04-13T22:58:42.096Z,96.03
2018-04-13T23:01:11.918Z,98.07
2018-04-13T23:03:41.746Z,108.13
2018-04-13T23:06:11.571Z,100.87
2018-04-13T23:08:41.379Z,98.30
2018-04-13T23:11:11.214Z,87.10
2018-04-13T23:13:41.026Z,94.80
2018-04-13T23:16:10.842Z,103.63
2018-04-13T23:18:40.643Z,100.67
2018-04-13T23:21:10.460Z,105.80
2018-04-13T23:23:40.271Z,99.87
2018-04-13T23:26:10.062Z,106.23
2018-04-13T23:28:39.948Z,109.93
2018-04-13T23:31:09.763Z,106.37
2018-04-13T23:33:39.627Z,112.73
2018-04-13T23:36:09.434Z,101.57
2018-04-13T23:38:39.266Z,111.03
2018-04-13T23:41:09.071Z,111.50
2018-04-13T23:43:38.895Z,106.67
2018-04-13T23:46:08.706Z,96.60
2018-04-13T23:48:38.551Z,105.47
2018-04-13T23:51:08.367Z,109.73
2018-04-13T23:53:38.192Z,104.67
2018-04-13T23:56:08.083Z,110.67
2018-04-13T23:58:37.894Z,109.53
